Time;durP1;ratioP1;P1;durP2;ratioP2;P2;SDS_P1;SDS_P2;PMS_P1;PMS_P2;Temp;Humidity;BMP_temperature;BMP_pressure;BME280_temperature;BME280_humidity;BME280_pressure;Samples;Min_cycle;Max_cycle;Signal;HPM_P1;HPM_P2
2022/03/29 00:00:36;;;;;;;13.53;10.43;;;12.30;82.50;;;;;;5052717;28;20183;-71
2022/03/29 00:03:05;;;;;;;11.80;10.60;;;12.30;82.80;;;;;;5052459;28;20196;-71
2022/03/29 00:05:32;;;;;;;11.80;9.90;;;12.30;82.60;;;;;;5052590;28;20887;-70
2022/03/29 00:07:57;;;;;;;12.83;10.00;;;12.20;82.30;;;;;;5053074;28;20412;-71
2022/03/29 00:10:23;;;;;;;11.37;9.10;;;12.20;82.90;;;;;;5052585;28;20443;-71
2022/03/29 00:12:53;;;;;;;16.60;12.87;;;12.20;83.70;;;;;;5052937;28;20162;-71
2022/03/29 00:15:20;;;;;;;18.53;13.13;;;12.10;83.70;;;;;;5052987;28;20404;-72
2022/03/29 00:17:45;;;;;;;14.37;9.87;;;12.10;83.30;;;;;;5051455;28;20842;-71
2022/03/29 00:20:11;;;;;;;13.10;10.47;;;12.00;83.40;;;;;;5053435;28;20443;-71
2022/03/29 00:22:37;;;;;;;12.43;9.43;;;12.10;83.80;;;;;;5056076;28;20176;-71
2022/03/29 00:25:03;;;;;;;9.57;8.37;;;12.10;83.80;;;;;;5056969;28;20163;-71
2022/03/29 00:27:29;;;;;;;14.67;10.97;;;12.00;84.30;;;;;;5048419;28;20209;-71
2022/03/29 00:29:54;;;;;;;12.50;10.03;;;12.00;84.40;;;;;;5043101;28;20465;-71
2022/03/29 00:32:20;;;;;;;12.73;9.70;;;12.10;84.60;;;;;;5036344;28;20588;-70
2022/03/29 00:34:45;;;;;;;14.00;10.57;;;12.20;84.70;;;;;;5037094;28;20172;-70
2022/03/29 00:37:11;;;;;;;13.33;10.40;;;12.10;84.50;;;;;;5036782;28;20371;-70
2022/03/29 00:39:37;;;;;;;10.90;9.80;;;12.10;84.80;;;;;;5036202;28;20184;-71
2022/03/29 00:42:03;;;;;;;12.60;9.60;;;12.10;85.40;;;;;;5036289;28;20164;-71
2022/03/29 00:44:33;;;;;;;11.87;10.57;;;12.20;85.50;;;;;;5036508;28;20168;-71
2022/03/29 00:47:00;;;;;;;14.03;10.60;;;12.20;85.30;;;;;;5036311;28;20822;-70
2022/03/29 00:49:26;;;;;;;13.10;10.40;;;12.10;85.40;;;;;;5036157;28;20492;-70
2022/03/29 00:51:58;;;;;;;10.73;9.50;;;12.10;86.10;;;;;;5036391;28;20409;-71
2022/03/29 00:54:25;;;;;;;12.00;10.37;;;12.00;86.40;;;;;;5036052;28;20386;-71
2022/03/29 00:56:51;;;;;;;12.60;10.73;;;11.90;86.80;;;;;;5035876;28;20653;-70
2022/03/29 00:59:18;;;;;;;11.00;8.93;;;12.00;87.10;;;;;;5036125;28;20493;-71
2022/03/29 01:01:44;;;;;;;12.17;10.83;;;12.10;87.80;;;;;;5035848;28;20155;-72
2022/03/29 01:04:10;;;;;;;12.40;9.10;;;12.10;87.50;;;;;;5035384;28;20746;-70
2022/03/29 01:06:38;;;;;;;11.30;9.50;;;12.00;87.60;;;;;;5036040;28;20465;-72
2022/03/29 01:09:03;;;;;;;11.77;9.60;;;12.00;87.90;;;;;;5035741;28;20174;-71
2022/03/29 01:11:30;;;;;;;13.80;9.63;;;11.90;88.60;;;;;;5035578;28;20432;-71
2022/03/29 01:13:56;;;;;;;10.50;9.40;;;11.90;89.20;;;;;;5035493;28;20544;-71
2022/03/29 01:19:09;;;;;;;11.67;9.43;;;11.70;89.90;;;;;;5051640;28;20662;-71
2022/03/29 01:21:38;;;;;;;11.50;9.50;;;11.80;90.30;;;;;;5055320;28;20440;-71
2022/03/29 01:24:05;;;;;;;11.73;9.03;;;11.80;90.30;;;;;;5055254;28;20501;-71
2022/03/29 01:26:31;;;;;;;12.00;9.73;;;11.70;90.40;;;;;;5055301;28;20401;-71
2022/03/29 01:28:57;;;;;;;11.80;8.90;;;11.60;90.90;;;;;;5053953;28;20500;-71
2022/03/29 01:31:25;;;;;;;10.90;9.03;;;11.60;90.60;;;;;;5054831;28;20438;-71
2022/03/29 01:33:51;;;;;;;15.17;10.80;;;11.70;91.30;;;;;;5054543;28;20888;-71
2022/03/29 01:36:17;;;;;;;11.27;9.10;;;11.70;91.30;;;;;;5055447;28;20444;-71
2022/03/29 01:38:42;;;;;;;11.23;9.80;;;11.60;91.00;;;;;;5055029;28;20873;-70
2022/03/29 01:41:10;;;;;;;12.87;10.00;;;11.60;91.00;;;;;;5055095;28;20212;-70
2022/03/29 01:43:36;;;;;;;12.40;9.60;;;11.60;91.10;;;;;;5055203;28;20194;-72
2022/03/29 01:46:02;;;;;;;14.20;9.90;;;11.60;91.00;;;;;;5055036;28;20404;-72
2022/03/29 01:48:28;;;;;;;12.00;9.40;;;11.70;91.10;;;;;;5054497;28;20182;-71
2022/03/29 01:50:53;;;;;;;13.20;9.97;;;11.60;91.10;;;;;;5054899;28;20656;-71
2022/03/29 01:53:27;;;;;;;10.10;9.00;;;11.60;91.20;;;;;;5055076;28;20411;-71
2022/03/29 01:56:00;;;;;;;12.27;9.37;;;11.60;91.10;;;;;;5055216;28;20537;-72
2022/03/29 01:58:27;;;;;;;13.10;9.87;;;11.60;90.80;;;;;;5054939;28;20495;-72
2022/03/29 02:00:53;;;;;;;12.20;9.30;;;11.70;90.90;;;;;;5054688;28;20502;-71
2022/03/29 02:03:19;;;;;;;15.37;10.70;;;11.70;90.40;;;;;;5054411;28;20400;-71
2022/03/29 02:05:45;;;;;;;11.87;10.00;;;11.60;90.60;;;;;;5054648;28;20393;-71
2022/03/29 02:08:11;;;;;;;11.50;9.80;;;11.70;90.70;;;;;;5054521;28;20401;-72
2022/03/29 02:10:37;;;;;;;10.40;9.40;;;11.70;90.70;;;;;;5054640;28;20182;-70
2022/03/29 02:13:03;;;;;;;12.30;10.30;;;11.70;90.90;;;;;;5054421;28;20463;-70
2022/03/29 02:15:29;;;;;;;12.40;9.50;;;11.70;90.60;;;;;;5054328;28;20403;-70
2022/03/29 02:17:55;;;;;;;15.10;10.00;;;11.50;90.50;;;;;;5053390;28;20470;-71
2022/03/29 02:20:23;;;;;;;10.23;8.90;;;11.60;90.80;;;;;;5054371;28;20221;-71
2022/03/29 02:22:48;;;;;;;10.90;9.80;;;11.70;90.60;;;;;;5053236;28;20193;-71
2022/03/29 02:25:15;;;;;;;10.97;9.33;;;11.70;90.50;;;;;;5054353;28;20408;-71
2022/03/29 02:27:42;;;;;;;11.87;9.83;;;11.80;90.70;;;;;;5054623;28;20163;-71
2022/03/29 02:30:10;;;;;;;11.47;9.20;;;11.80;90.50;;;;;;5054150;28;20496;-71
2022/03/29 02:32:36;;;;;;;11.93;9.00;;;11.70;90.80;;;;;;5053657;28;20433;-71
2022/03/29 02:35:02;;;;;;;11.53;9.70;;;11.70;90.80;;;;;;5054095;28;20475;-71
2022/03/29 02:37:27;;;;;;;12.60;9.97;;;11.70;90.90;;;;;;5054501;28;20191;-71
2022/03/29 02:39:53;;;;;;;14.50;9.37;;;11.60;90.60;;;;;;5053878;28;20421;-71
2022/03/29 02:42:19;;;;;;;13.43;10.00;;;11.50;90.80;;;;;;5054288;28;20159;-71
2022/03/29 02:44:44;;;;;;;9.97;8.93;;;11.50;90.80;;;;;;5053109;28;20175;-71
2022/03/29 02:47:10;;;;;;;12.40;9.73;;;11.60;90.90;;;;;;5053784;28;20650;-72
2022/03/29 02:49:36;;;;;;;11.93;9.60;;;11.60;90.70;;;;;;5053561;28;20189;-72
2022/03/29 02:52:02;;;;;;;10.40;9.40;;;11.70;90.60;;;;;;5052442;28;20182;-71
2022/03/29 02:54:28;;;;;;;14.30;9.17;;;11.70;90.80;;;;;;5053933;28;20411;-72
2022/03/29 02:56:54;;;;;;;10.07;9.00;;;11.70;90.70;;;;;;5053773;28;20405;-72
2022/03/29 02:59:19;;;;;;;10.63;9.40;;;11.70;90.80;;;;;;5053676;28;20169;-71
2022/03/29 03:01:45;;;;;;;10.67;7.80;;;11.60;90.60;;;;;;5053720;28;20513;-72
2022/03/29 03:04:13;;;;;;;10.50;9.37;;;11.60;91.00;;;;;;5053052;28;20301;-71
2022/03/29 03:06:40;;;;;;;11.93;8.97;;;11.60;91.20;;;;;;5053726;28;20243;-72
2022/03/29 03:09:06;;;;;;;10.17;8.87;;;11.60;91.30;;;;;;5053697;28;20407;-72
2022/03/29 03:11:32;;;;;;;11.27;9.97;;;11.50;91.20;;;;;;5053327;28;20430;-72
2022/03/29 03:13:57;;;;;;;10.73;9.63;;;11.50;91.50;;;;;;5053484;28;20582;-72
2022/03/29 03:16:23;;;;;;;12.00;9.77;;;11.50;91.40;;;;;;5051920;28;20180;-70
2022/03/29 03:18:49;;;;;;;12.77;10.53;;;11.40;91.30;;;;;;5051837;28;20678;-71
2022/03/29 03:21:14;;;;;;;11.40;9.33;;;11.40;91.20;;;;;;5045312;28;20276;-71
2022/03/29 03:23:40;;;;;;;11.87;9.70;;;11.30;91.60;;;;;;5033453;28;20210;-71
2022/03/29 03:26:06;;;;;;;13.37;10.07;;;11.40;91.50;;;;;;5033182;28;20195;-71
2022/03/29 03:28:31;;;;;;;11.30;9.40;;;11.40;91.50;;;;;;5033355;28;20174;-70
2022/03/29 03:30:57;;;;;;;11.67;9.33;;;11.40;91.60;;;;;;5033514;28;20664;-71
2022/03/29 03:33:23;;;;;;;12.47;10.47;;;11.30;91.80;;;;;;5032698;28;20190;-71
2022/03/29 03:35:48;;;;;;;10.40;9.40;;;11.20;91.80;;;;;;5033094;28;20242;-71
2022/03/29 03:38:14;;;;;;;14.60;10.63;;;11.10;92.00;;;;;;5033226;28;20625;-71
2022/03/29 03:40:41;;;;;;;10.87;9.73;;;11.10;92.30;;;;;;5032852;28;20187;-71
2022/03/29 03:43:07;;;;;;;10.20;8.93;;;11.20;92.40;;;;;;5033179;28;20559;-71
2022/03/29 03:45:33;;;;;;;10.00;9.00;;;11.30;92.30;;;;;;5033201;28;20399;-71
2022/03/29 03:47:58;;;;;;;10.43;8.80;;;11.30;92.00;;;;;;5038791;28;20420;-71
2022/03/29 03:50:24;;;;;;;11.03;9.30;;;11.30;91.90;;;;;;5052826;28;20337;-71
2022/03/29 03:52:51;;;;;;;11.90;9.27;;;11.10;92.20;;;;;;5051389;28;20170;-71
2022/03/29 03:55:18;;;;;;;14.53;11.73;;;11.10;92.50;;;;;;5052865;28;20415;-71
2022/03/29 03:57:44;;;;;;;15.10;13.40;;;11.10;92.10;;;;;;5053325;28;20492;-70
2022/03/29 04:00:11;;;;;;;17.53;13.10;;;10.80;90.90;;;;;;5052578;28;20417;-71
2022/03/29 04:02:37;;;;;;;15.70;11.30;;;10.80;91.00;;;;;;5052382;28;20633;-71
2022/03/29 04:05:03;;;;;;;16.23;12.70;;;10.90;91.40;;;;;;5052323;28;20409;-71
2022/03/29 04:07:29;;;;;;;14.80;11.97;;;10.70;91.70;;;;;;5052884;28;20809;-71
2022/03/29 04:09:55;;;;;;;15.53;11.10;;;10.90;91.60;;;;;;5050391;28;20591;-71
2022/03/29 04:12:20;;;;;;;14.00;11.00;;;10.90;92.00;;;;;;5050054;28;20232;-71
2022/03/29 04:14:46;;;;;;;14.73;11.60;;;11.00;91.90;;;;;;5052426;28;20233;-71
2022/03/29 04:17:13;;;;;;;14.60;11.57;;;10.90;92.20;;;;;;5051549;28;20232;-72
2022/03/29 04:19:39;;;;;;;13.83;11.90;;;10.70;92.50;;;;;;5050899;28;20226;-72
2022/03/29 04:22:05;;;;;;;13.93;11.87;;;10.60;92.60;;;;;;5046065;22;20486;-68
2022/03/29 04:24:30;;;;;;;13.77;10.80;;;10.70;92.70;;;;;;5012336;28;20191;-70
2022/03/29 04:26:56;;;;;;;12.70;11.13;;;10.60;93.00;;;;;;5012612;28;20401;-70
2022/03/29 04:29:23;;;;;;;13.67;10.80;;;10.70;93.10;;;;;;5012588;28;20168;-70
2022/03/29 04:31:49;;;;;;;21.20;11.60;;;10.60;93.30;;;;;;5025432;28;20561;-70
2022/03/29 04:34:15;;;;;;;13.23;11.83;;;10.40;93.90;;;;;;5031834;28;20430;-70
2022/03/29 04:36:41;;;;;;;17.20;11.53;;;10.40;94.00;;;;;;5031875;28;20430;-70
2022/03/29 04:39:06;;;;;;;18.47;11.67;;;10.40;94.30;;;;;;5032186;28;20662;-69
2022/03/29 04:41:32;;;;;;;15.33;11.57;;;10.30;94.20;;;;;;5032184;28;20188;-70
2022/03/29 04:43:58;;;;;;;12.10;10.70;;;10.10;94.00;;;;;;5032262;28;20163;-69
2022/03/29 04:46:24;;;;;;;14.27;12.60;;;10.10;94.50;;;;;;5031975;28;20163;-69
2022/03/29 04:48:52;;;;;;;20.33;13.80;;;10.10;94.80;;;;;;5031728;28;20402;-69
2022/03/29 04:51:18;;;;;;;19.83;13.10;;;10.00;94.60;;;;;;5031767;28;20434;-69
2022/03/29 04:53:44;;;;;;;19.27;13.13;;;10.10;94.70;;;;;;5031791;28;20538;-69
2022/03/29 04:56:09;;;;;;;17.07;12.90;;;10.10;94.80;;;;;;5032375;28;20474;-69
2022/03/29 04:58:35;;;;;;;15.73;11.57;;;10.20;94.70;;;;;;5032176;28;20202;-69
2022/03/29 05:01:01;;;;;;;15.43;13.17;;;10.20;94.40;;;;;;5035580;28;20196;-70
2022/03/29 05:03:27;;;;;;;17.40;14.23;;;10.20;93.90;;;;;;5038056;28;20172;-70
2022/03/29 05:05:52;;;;;;;16.43;13.13;;;10.30;94.40;;;;;;5037944;28;20399;-70
2022/03/29 05:08:18;;;;;;;16.50;13.33;;;10.30;94.60;;;;;;5035280;28;20570;-69
2022/03/29 05:10:43;;;;;;;22.50;13.37;;;10.30;94.70;;;;;;5035448;28;20195;-70
2022/03/29 05:13:09;;;;;;;13.87;11.70;;;10.30;94.80;;;;;;5035141;28;20653;-69
2022/03/29 05:15:35;;;;;;;19.60;12.37;;;10.30;95.00;;;;;;5035509;28;20168;-70
2022/03/29 05:18:02;;;;;;;19.43;12.33;;;10.30;95.00;;;;;;5033954;28;20484;-70
2022/03/29 05:20:27;;;;;;;14.67;10.93;;;10.30;95.30;;;;;;5035301;28;20511;-69
2022/03/29 05:22:55;;;;;;;18.87;12.53;;;10.30;95.60;;;;;;5035395;28;20414;-69
2022/03/29 05:25:22;;;;;;;13.20;11.70;;;10.30;95.70;;;;;;5034116;28;20656;-70
2022/03/29 05:27:49;;;;;;;18.43;12.80;;;10.30;95.60;;;;;;5035026;28;20406;-68
2022/03/29 05:30:15;;;;;;;16.97;12.60;;;10.20;96.10;;;;;;5034959;28;20441;-69
2022/03/29 05:32:42;;;;;;;14.23;12.73;;;10.20;96.20;;;;;;5034485;28;20752;-70
2022/03/29 05:35:09;;;;;;;17.17;12.20;;;10.20;96.50;;;;;;5035782;28;20413;-70
2022/03/29 05:37:36;;;;;;;17.37;12.73;;;10.20;96.60;;;;;;5034739;28;20448;-69
2022/03/29 05:40:03;;;;;;;12.40;10.70;;;10.20;96.90;;;;;;5035167;28;20515;-69
2022/03/29 05:42:29;;;;;;;16.07;12.50;;;10.20;97.20;;;;;;5034413;28;20447;-70
2022/03/29 05:44:55;;;;;;;18.47;13.27;;;10.20;97.40;;;;;;5034715;28;20403;-69
2022/03/29 05:50:05;;;;;;;18.80;13.90;;;10.20;97.50;;;;;;5035589;28;20158;-70
2022/03/29 05:52:30;;;;;;;14.57;12.60;;;10.30;97.60;;;;;;5034335;28;20505;-69
2022/03/29 05:54:57;;;;;;;19.17;12.50;;;10.30;97.70;;;;;;5034518;28;20916;-70
2022/03/29 05:57:23;;;;;;;15.93;12.40;;;10.40;97.40;;;;;;5033182;28;20334;-69
2022/03/29 05:59:49;;;;;;;13.40;11.90;;;10.60;97.30;;;;;;5034246;28;20401;-69
2022/03/29 06:02:15;;;;;;;17.30;13.00;;;10.80;96.50;;;;;;5034088;28;20479;-69
2022/03/29 06:04:40;;;;;;;17.80;12.90;;;11.00;96.40;;;;;;5034085;28;20199;-69
2022/03/29 06:07:19;;;;;;;16.17;13.57;;;11.10;96.40;;;;;;5034194;28;20680;-69
2022/03/29 06:09:45;;;;;;;16.23;11.80;;;11.20;96.40;;;;;;5030613;28;20176;-69
2022/03/29 06:12:10;;;;;;;21.20;13.90;;;11.30;96.10;;;;;;5011337;28;20435;-69
2022/03/29 06:14:36;;;;;;;15.60;13.30;;;11.40;95.90;;;;;;5005769;28;20222;-69
2022/03/29 06:17:02;;;;;;;17.20;12.20;;;11.50;95.80;;;;;;5014091;28;20170;-70
2022/03/29 06:19:28;;;;;;;17.07;12.40;;;11.60;95.50;;;;;;5030128;28;20657;-69
2022/03/29 06:21:53;;;;;;;19.33;13.73;;;11.70;95.40;;;;;;5033481;28;20206;-68
2022/03/29 06:24:19;;;;;;;22.23;13.70;;;11.70;95.40;;;;;;5034243;28;20463;-69
2022/03/29 06:26:45;;;;;;;30.13;14.30;;;11.60;95.50;;;;;;5034167;28;20208;-69
2022/03/29 06:29:11;;;;;;;24.37;13.10;;;11.70;95.80;;;;;;5034201;28;20226;-69
2022/03/29 06:31:38;;;;;;;20.27;13.43;;;11.70;95.60;;;;;;5034038;28;20186;-69
2022/03/29 06:34:03;;;;;;;21.80;13.60;;;11.70;95.10;;;;;;5032433;28;20509;-71
2022/03/29 06:36:29;;;;;;;22.33;13.40;;;11.80;95.40;;;;;;5033485;28;20855;-69
2022/03/29 06:38:55;;;;;;;23.07;13.23;;;11.90;95.00;;;;;;5032681;28;20278;-69
2022/03/29 06:41:21;;;;;;;16.57;12.73;;;12.20;95.00;;;;;;5034528;28;20753;-70
2022/03/29 06:43:47;;;;;;;18.40;13.67;;;12.40;94.20;;;;;;5034728;28;20169;-70
2022/03/29 06:46:13;;;;;;;18.33;13.80;;;12.50;93.80;;;;;;5034315;28;20938;-70
2022/03/29 06:48:44;;;;;;;18.10;13.93;;;12.70;93.90;;;;;;5033755;28;20443;-69
2022/03/29 06:51:14;;;;;;;21.93;14.23;;;12.80;93.80;;;;;;5033702;28;20318;-69
2022/03/29 06:53:41;;;;;;;17.23;13.37;;;13.00;93.80;;;;;;5016912;28;20427;-68
2022/03/29 06:56:07;;;;;;;18.23;13.83;;;13.10;93.00;;;;;;5014213;28;20407;-68
2022/03/29 06:58:36;;;;;;;14.87;12.67;;;13.10;92.30;;;;;;5014049;28;20455;-68
2022/03/29 07:01:03;;;;;;;22.40;15.23;;;13.20;92.90;;;;;;5012711;28;20956;-69
2022/03/29 07:03:30;;;;;;;22.57;15.13;;;13.20;92.00;;;;;;5014169;28;20439;-68
2022/03/29 07:05:56;;;;;;;21.23;16.03;;;13.10;90.80;;;;;;5019535;28;20407;-70
2022/03/29 07:08:22;;;;;;;29.00;16.23;;;13.00;90.60;;;;;;5023999;28;20499;-69
2022/03/29 07:13:32;;;;;;;24.33;15.80;;;13.30;90.20;;;;;;5023692;28;20406;-70
2022/03/29 07:15:58;;;;;;;18.80;14.70;;;13.50;90.20;;;;;;5021148;28;20437;-69
2022/03/29 07:18:24;;;;;;;20.90;16.03;;;13.60;89.50;;;;;;5028469;28;20488;-70
2022/03/29 07:20:49;;;;;;;20.00;15.13;;;13.70;89.00;;;;;;5040315;28;20670;-70
2022/03/29 07:23:15;;;;;;;23.50;15.87;;;13.80;88.40;;;;;;5036002;28;20177;-69
2022/03/29 07:25:40;;;;;;;21.37;16.07;;;13.90;87.90;;;;;;5036923;28;20173;-69
2022/03/29 07:28:11;;;;;;;26.13;16.73;;;13.70;87.40;;;;;;5036624;28;20245;-70
2022/03/29 07:30:39;;;;;;;21.03;16.67;;;13.70;87.40;;;;;;5033109;28;20535;-69
2022/03/29 07:33:04;;;;;;;22.63;16.67;;;13.90;87.20;;;;;;5033352;28;20896;-70
2022/03/29 07:35:31;;;;;;;24.53;15.60;;;14.00;88.40;;;;;;5033217;28;20538;-70
2022/03/29 07:37:57;;;;;;;21.60;16.00;;;13.90;86.70;;;;;;5032772;28;20543;-70
2022/03/29 07:40:25;;;;;;;23.70;16.80;;;14.10;86.70;;;;;;5032859;28;20413;-69
2022/03/29 07:42:52;;;;;;;25.30;15.83;;;14.10;86.70;;;;;;5033341;28;20402;-69
2022/03/29 07:45:19;;;;;;;19.90;16.57;;;14.00;88.40;;;;;;5033301;28;20430;-68
2022/03/29 07:47:45;;;;;;;33.70;16.40;;;14.20;86.70;;;;;;5032552;28;20467;-69
2022/03/29 07:50:12;;;;;;;24.53;15.47;;;14.10;86.00;;;;;;5032871;28;20408;-69
2022/03/29 07:52:42;;;;;;;24.37;14.97;;;14.20;85.80;;;;;;5032415;28;20420;-69
2022/03/29 07:55:09;;;;;;;21.53;16.40;;;14.50;85.60;;;;;;5032940;28;20456;-69
2022/03/29 07:57:35;;;;;;;27.17;17.47;;;14.60;86.10;;;;;;5033082;28;20450;-69
2022/03/29 08:00:31;;;;;;;22.73;16.10;;;14.80;85.10;;;;;;5033239;28;20408;-69
2022/03/29 08:02:49;;;;;;;23.00;17.50;;;14.80;83.70;;;;;;5033335;28;20474;-68
2022/03/29 08:05:14;;;;;;;25.60;16.97;;;14.90;83.60;;;;;;5015275;28;20413;-68
2022/03/29 08:07:41;;;;;;;20.53;16.23;;;15.00;82.50;;;;;;5013357;28;20171;-68
2022/03/29 08:10:07;;;;;;;23.10;17.40;;;15.00;81.70;;;;;;5013681;28;20411;-68
2022/03/29 08:12:34;;;;;;;22.67;16.53;;;14.50;82.90;;;;;;5012950;28;20982;-69
2022/03/29 08:14:59;;;;;;;24.03;16.80;;;14.30;83.90;;;;;;5012861;28;20417;-69
2022/03/29 08:17:26;;;;;;;24.33;15.97;;;14.50;83.50;;;;;;5012289;28;20459;-69
2022/03/29 08:19:52;;;;;;;25.33;17.80;;;14.50;83.90;;;;;;5031817;28;20176;-68
2022/03/29 08:22:17;;;;;;;29.70;18.60;;;14.50;83.30;;;;;;5032489;28;20470;-67
2022/03/29 08:24:43;;;;;;;24.63;16.70;;;14.60;83.00;;;;;;5032708;28;20405;-68
2022/03/29 08:27:09;;;;;;;28.10;17.93;;;14.70;82.70;;;;;;5032681;28;20196;-69
2022/03/29 08:29:35;;;;;;;25.93;17.90;;;14.60;82.60;;;;;;5032673;28;20209;-69
2022/03/29 08:32:01;;;;;;;24.80;17.80;;;14.70;83.40;;;;;;5032325;28;20459;-68
2022/03/29 08:34:26;;;;;;;21.97;16.53;;;15.10;82.50;;;;;;5032016;28;20658;-68
2022/03/29 08:36:52;;;;;;;19.07;16.40;;;15.00;81.40;;;;;;5032105;28;20509;-68
2022/03/29 08:39:18;;;;;;;33.40;17.40;;;14.80;81.50;;;;;;5032876;28;20276;-69
2022/03/29 08:41:52;;;;;;;22.67;16.73;;;14.90;81.80;;;;;;5032184;28;20276;-68
2022/03/29 08:44:18;;;;;;;26.80;18.73;;;14.80;81.40;;;;;;5036078;28;20181;-68
2022/03/29 08:46:46;;;;;;;28.47;17.40;;;14.90;81.70;;;;;;5036143;28;20492;-69
2022/03/29 08:49:14;;;;;;;20.67;15.40;;;15.10;82.10;;;;;;5035494;28;20293;-68
2022/03/29 08:51:40;;;;;;;26.15;17.50;;;14.70;80.90;;;;;;5035632;28;20440;-68
2022/03/29 08:54:06;;;;;;;24.67;17.40;;;14.80;80.90;;;;;;5036874;28;20186;-69
2022/03/29 08:56:33;;;;;;;23.00;16.33;;;15.10;79.80;;;;;;5036078;28;20402;-65
2022/03/29 08:58:59;;;;;;;23.60;16.90;;;15.00;79.90;;;;;;5036307;28;20194;-67
2022/03/29 09:01:24;;;;;;;25.63;17.67;;;15.60;79.50;;;;;;5036081;28;20417;-65
2022/03/29 09:04:06;;;;;;;23.53;17.07;;;16.20;78.00;;;;;;5035600;28;20887;-67
2022/03/29 09:06:32;;;;;;;23.07;16.60;;;16.60;76.30;;;;;;5007818;28;20172;-66
2022/03/29 09:08:58;;;;;;;23.73;17.47;;;16.40;76.30;;;;;;5015597;28;20398;-66
2022/03/29 09:11:24;;;;;;;23.67;15.97;;;16.10;77.40;;;;;;5014483;28;20470;-66
2022/03/29 09:14:03;;;;;;;24.53;16.53;;;15.80;78.10;;;;;;5014427;28;20176;-66
2022/03/29 09:16:31;;;;;;;25.47;17.17;;;16.00;77.80;;;;;;5016016;28;20170;-66
2022/03/29 09:18:57;;;;;;;19.87;16.40;;;16.40;77.30;;;;;;5026242;28;20591;-67
2022/03/29 09:21:24;;;;;;;25.00;16.10;;;16.50;76.50;;;;;;5035603;28;20446;-67
2022/03/29 09:24:14;;;;;;;23.97;17.10;;;16.20;76.30;;;;;;5035522;28;20406;-66
2022/03/29 09:26:47;;;;;;;25.40;17.07;;;16.30;76.00;;;;;;5035636;28;20391;-66
2022/03/29 09:29:14;;;;;;;23.47;17.33;;;16.50;75.60;;;;;;5035537;28;20414;-66
2022/03/29 09:31:40;;;;;;;24.07;17.10;;;16.50;76.30;;;;;;5035285;28;20429;-67
2022/03/29 09:34:19;;;;;;;18.93;16.50;;;16.70;76.80;;;;;;5035157;28;20410;-67
2022/03/29 09:36:49;;;;;;;18.03;14.13;;;16.80;75.60;;;;;;5035803;28;20440;-66
2022/03/29 09:39:36;;;;;;;18.63;14.57;;;16.90;73.40;;;;;;5035375;28;20442;-66
2022/03/29 09:42:07;;;;;;;23.33;15.70;;;16.90;72.70;;;;;;5035041;28;20421;-66
2022/03/29 09:44:40;;;;;;;18.63;15.90;;;16.70;72.90;;;;;;5013926;28;20425;-67
2022/03/29 09:47:07;;;;;;;19.40;15.77;;;16.90;72.00;;;;;;4997524;28;20474;-67
2022/03/29 09:50:01;;;;;;;17.50;14.70;;;17.20;73.20;;;;;;5026972;28;20426;-67
2022/03/29 09:52:32;;;;;;;18.40;15.17;;;17.60;70.50;;;;;;5034758;28;20462;-67
2022/03/29 09:55:12;;;;;;;18.40;15.00;;;17.60;70.20;;;;;;5034864;28;20406;-67
2022/03/29 09:57:40;;;;;;;19.00;14.90;;;18.10;70.00;;;;;;5034741;28;20448;-67
2022/03/29 10:00:08;;;;;;;22.50;15.93;;;18.20;68.30;;;;;;5035064;28;20451;-66
2022/03/29 10:02:36;;;;;;;17.60;14.20;;;18.10;68.90;;;;;;5034737;28;20422;-67
2022/03/29 10:05:03;;;;;;;19.13;15.23;;;17.80;68.30;;;;;;5030521;28;20764;-67
2022/03/29 10:07:34;;;;;;;19.73;15.90;;;18.00;67.90;;;;;;5015810;28;20418;-66
2022/03/29 10:10:00;;;;;;;18.73;14.70;;;18.20;67.80;;;;;;5015115;28;20383;-67
2022/03/29 10:12:26;;;;;;;19.20;15.10;;;18.30;66.80;;;;;;5014707;28;20423;-67
2022/03/29 10:14:56;;;;;;;17.10;14.07;;;17.50;67.50;;;;;;5014849;28;20160;-67
2022/03/29 10:17:23;;;;;;;14.87;13.00;;;17.30;68.60;;;;;;5014869;28;20144;-68
2022/03/29 10:19:49;;;;;;;15.97;13.70;;;17.90;68.60;;;;;;5032161;28;20462;-67
2022/03/29 10:22:15;;;;;;;17.30;14.23;;;18.50;67.20;;;;;;5044646;22;20493;-67
2022/03/29 10:24:41;;;;;;;19.77;15.90;;;18.90;64.90;;;;;;5027282;28;20429;-67
2022/03/29 10:27:09;;;;;;;19.80;15.57;;;19.10;64.80;;;;;;5034166;28;20166;-67
2022/03/29 10:29:35;;;;;;;19.80;16.57;;;19.50;63.50;;;;;;5034301;28;20398;-67
2022/03/29 10:32:07;;;;;;;23.13;15.57;;;19.30;62.70;;;;;;5034181;28;20516;-67
2022/03/29 10:34:40;;;;;;;18.50;15.37;;;19.30;62.40;;;;;;5034059;28;20406;-67
2022/03/29 10:37:18;;;;;;;16.57;14.87;;;19.00;64.70;;;;;;5034458;28;20811;-67
2022/03/29 10:39:52;;;;;;;18.30;14.00;;;19.40;62.40;;;;;;5034548;28;20383;-67
2022/03/29 10:42:38;;;;;;;16.93;14.53;;;19.40;61.30;;;;;;5034600;28;20437;-70
2022/03/29 10:45:17;;;;;;;16.40;14.00;;;19.40;61.40;;;;;;5033406;28;20406;-67
2022/03/29 10:47:48;;;;;;;19.30;14.17;;;19.20;61.20;;;;;;5034264;28;20390;-67
2022/03/29 10:50:16;;;;;;;16.77;12.73;;;19.00;61.70;;;;;;5033738;28;20407;-67
2022/03/29 10:52:46;;;;;;;17.00;14.00;;;19.10;62.80;;;;;;5017748;28;20434;-65
2022/03/29 10:55:25;;;;;;;19.50;14.40;;;19.00;61.40;;;;;;5013813;28;20415;-67
2022/03/29 10:58:14;;;;;;;16.13;14.00;;;18.90;61.50;;;;;;5012204;28;20473;-66
2022/03/29 11:00:42;;;;;;;18.30;14.67;;;18.50;63.20;;;;;;5014330;28;20422;-67
2022/03/29 11:03:20;;;;;;;19.53;15.60;;;18.80;63.30;;;;;;5013666;28;20458;-66
2022/03/29 11:06:10;;;;;;;22.93;14.63;;;19.20;62.30;;;;;;5013206;28;20481;-67
2022/03/29 11:08:40;;;;;;;18.17;14.33;;;19.20;61.70;;;;;;5014011;28;20472;-67
2022/03/29 11:11:08;;;;;;;19.50;14.30;;;19.30;61.20;;;;;;5013953;28;20436;-67
2022/03/29 11:13:39;;;;;;;19.87;14.70;;;19.20;60.70;;;;;;5013516;28;20418;-67
2022/03/29 11:16:27;;;;;;;23.40;15.97;;;19.20;61.00;;;;;;5013841;28;20398;-68
2022/03/29 11:18:53;;;;;;;22.00;17.77;;;19.70;60.50;;;;;;5012571;28;20455;-68
2022/03/29 11:21:36;;;;;;;26.27;17.10;;;19.40;59.90;;;;;;5013742;28;21114;-68
2022/03/29 11:24:07;;;;;;;20.23;16.43;;;19.10;60.50;;;;;;5013685;28;20191;-68
2022/03/29 11:26:34;;;;;;;24.13;17.47;;;19.30;61.10;;;;;;5013879;28;20391;-68
2022/03/29 11:29:02;;;;;;;18.60;15.40;;;20.10;61.10;;;;;;5013500;28;20414;-68
2022/03/29 11:31:36;;;;;;;24.90;16.60;;;20.50;59.40;;;;;;5013358;28;20427;-68
2022/03/29 11:34:03;;;;;;;21.60;15.90;;;21.40;58.10;;;;;;5012799;28;20923;-68
2022/03/29 11:36:29;;;;;;;19.20;16.00;;;21.80;56.80;;;;;;5013019;28;20494;-68
2022/03/29 11:38:54;;;;;;;21.07;15.83;;;21.80;56.10;;;;;;5013339;28;20458;-67
2022/03/29 11:41:27;;;;;;;19.40;15.67;;;22.50;55.70;;;;;;5013415;28;20189;-67
2022/03/29 11:43:55;;;;;;;20.30;16.50;;;22.10;55.10;;;;;;5013558;28;20260;-67
2022/03/29 11:46:21;;;;;;;21.20;16.10;;;21.50;55.40;;;;;;5013372;28;20772;-68
2022/03/29 11:48:49;;;;;;;21.27;17.10;;;21.60;55.90;;;;;;5012851;28;20418;-67
2022/03/29 11:51:16;;;;;;;18.00;15.40;;;22.10;55.90;;;;;;5013191;28;20449;-67
2022/03/29 11:53:42;;;;;;;18.27;16.33;;;22.20;54.30;;;;;;5013199;28;20449;-68
2022/03/29 11:56:13;;;;;;;22.90;14.90;;;21.50;55.20;;;;;;5014076;28;20752;-68
2022/03/29 11:58:49;;;;;;;22.87;17.83;;;22.30;55.10;;;;;;5012987;28;20435;-67
2022/03/29 12:01:25;;;;;;;23.47;16.27;;;23.00;55.20;;;;;;5013230;28;20477;-68
2022/03/29 12:03:57;;;;;;;20.17;15.67;;;23.30;53.10;;;;;;5012891;28;20383;-67
2022/03/29 12:06:27;;;;;;;26.40;18.20;;;22.30;53.60;;;;;;5013183;28;20778;-69
2022/03/29 12:08:57;;;;;;;18.50;16.60;;;22.20;54.30;;;;;;5012474;28;20395;-67
2022/03/29 12:11:37;;;;;;;24.70;16.97;;;21.70;54.10;;;;;;5013029;28;20473;-68
2022/03/29 12:14:10;;;;;;;20.63;16.90;;;21.70;55.10;;;;;;5012795;28;20884;-67
2022/03/29 12:16:42;;;;;;;19.27;17.10;;;22.20;55.40;;;;;;5015132;28;20553;-69
2022/03/29 12:19:22;;;;;;;20.03;16.43;;;22.40;54.40;;;;;;5015928;28;20465;-67
2022/03/29 12:21:59;;;;;;;22.07;17.43;;;22.30;54.90;;;;;;5016707;28;20450;-67
2022/03/29 12:24:26;;;;;;;17.83;15.80;;;22.50;52.90;;;;;;5017010;28;20378;-69
2022/03/29 12:27:02;;;;;;;20.00;17.53;;;22.90;54.50;;;;;;5016685;28;20779;-66
2022/03/29 12:29:28;;;;;;;23.97;18.27;;;23.10;52.30;;;;;;5016498;28;20391;-66
2022/03/29 12:31:55;;;;;;;19.10;16.67;;;22.40;54.00;;;;;;5016276;28;20426;-66
2022/03/29 12:34:29;;;;;;;21.50;17.77;;;22.40;54.30;;;;;;5016197;28;20403;-67
2022/03/29 12:37:00;;;;;;;23.03;16.47;;;22.00;53.10;;;;;;5016459;28;20413;-67
2022/03/29 12:39:39;;;;;;;20.87;17.50;;;21.50;54.30;;;;;;5016403;28;20465;-67